Time;durP1;ratioP1;P1;durP2;ratioP2;P2;SDS_P1;SDS_P2;PMS_P1;PMS_P2;Temp;Humidity;BMP_temperature;BMP_pressure;BME280_temperature;BME280_humidity;BME280_pressure;Samples;Min_cycle;Max_cycle;Signal;HPM_P1;HPM_P2
2022/08/28 00:00:38;;;;;;;5.27;4.77;;;27.10;55.70;;;;;;6068517;23;20742;-83
2022/08/28 00:03:07;;;;;;;5.40;4.97;;;27.10;55.60;;;;;;6090795;23;20374;-85
2022/08/28 00:06:03;;;;;;;;;;;;;;;;;;;;;
2022/08/28 00:08:39;;;;;;;5.20;4.70;;;27.10;55.50;;;;;;6113872;23;20405;-85
2022/08/28 00:11:20;;;;;;;5.20;4.37;;;27.10;55.50;;;;;;6089955;23;20441;-85
2022/08/28 00:14:20;;;;;;;5.23;4.70;;;27.10;55.50;;;;;;6090148;23;20438;-85
2022/08/28 00:17:20;;;;;;;5.97;5.37;;;27.10;55.50;;;;;;6115423;23;20452;-84
2022/08/28 00:20:00;;;;;;;6.67;4.70;;;27.10;55.50;;;;;;6090274;23;20386;-85
2022/08/28 00:22:32;;;;;;;5.87;5.37;;;27.10;55.50;;;;;;6105154;23;20384;-85
2022/08/28 00:25:06;;;;;;;5.77;4.90;;;27.10;55.60;;;;;;6150100;23;20823;-85
2022/08/28 00:27:52;;;;;;;5.40;4.43;;;27.10;55.40;;;;;;6175821;23;20460;-84
2022/08/28 00:30:41;;;;;;;5.20;4.70;;;27.10;55.40;;;;;;6175486;23;20392;-85
2022/08/28 00:33:19;;;;;;;5.30;4.80;;;27.10;55.40;;;;;;6148928;23;20380;-84
2022/08/28 00:38:45;;;;;;;4.90;4.33;;;27.00;55.30;;;;;;6174511;23;20418;-84
2022/08/28 00:41:20;;;;;;;4.93;4.43;;;27.00;55.40;;;;;;6148602;23;20376;-83
2022/08/28 00:44:20;;;;;;;4.90;4.40;;;27.00;55.40;;;;;;6147427;23;20403;-83
2022/08/28 00:47:09;;;;;;;5.60;5.10;;;27.00;55.40;;;;;;6147555;23;20435;-83
2022/08/28 00:49:54;;;;;;;5.00;4.60;;;27.00;55.30;;;;;;6148220;23;20378;-84
2022/08/28 00:59:18;;;;;;;5.33;4.50;;;27.00;55.30;;;;;;6175489;23;20527;-84
2022/08/28 01:01:52;;;;;;;4.83;4.40;;;27.00;55.30;;;;;;6149591;23;20383;-83
2022/08/28 01:04:26;;;;;;;5.20;4.53;;;27.00;55.30;;;;;;6148922;23;20388;-84
2022/08/28 01:07:18;;;;;;;5.00;4.50;;;27.00;55.90;;;;;;6173374;23;20392;-85
2022/08/28 01:09:51;;;;;;;5.50;4.80;;;27.00;55.30;;;;;;6148852;23;20793;-84
2022/08/28 01:12:34;;;;;;;5.47;4.57;;;27.00;55.30;;;;;;6124862;23;20398;-85
2022/08/28 01:15:30;;;;;;;6.20;5.60;;;27.00;55.30;;;;;;6128843;23;20852;-84
2022/08/28 01:18:05;;;;;;;5.93;5.03;;;27.00;55.30;;;;;;6126356;23;20430;-85
2022/08/28 01:21:18;;;;;;;5.27;4.77;;;27.00;55.30;;;;;;6148937;23;20379;-84
2022/08/28 01:24:01;;;;;;;5.27;4.77;;;27.00;55.40;;;;;;6102232;23;20376;-85
2022/08/28 01:26:39;;;;;;;6.40;5.70;;;27.00;55.30;;;;;;6148694;23;20380;-85
2022/08/28 01:29:17;;;;;;;5.30;4.80;;;27.00;55.30;;;;;;6148223;23;20391;-86
2022/08/28 01:31:49;;;;;;;5.33;4.83;;;27.00;55.30;;;;;;6148553;23;20679;-85
2022/08/28 01:34:34;;;;;;;4.93;4.37;;;27.00;55.30;;;;;;6148455;23;20415;-85
2022/08/28 01:44:14;;;;;;;5.20;4.70;;;26.90;55.10;;;;;;6089827;23;20406;-86
2022/08/28 01:53:50;;;;;;;5.30;4.80;;;26.90;55.20;;;;;;6003873;24;20423;-85
2022/08/28 01:56:21;;;;;;;5.33;4.83;;;26.90;55.20;;;;;;5980834;24;20409;-86
2022/08/28 01:59:00;;;;;;;5.53;5.00;;;26.80;55.20;;;;;;5980545;24;20429;-86
2022/08/28 02:01:44;;;;;;;6.80;5.60;;;26.80;55.20;;;;;;6003562;23;20388;-85
2022/08/28 02:11:24;;;;;;;5.53;5.03;;;26.80;55.20;;;;;;6003105;24;20394;-85
2022/08/28 02:14:16;;;;;;;5.50;4.97;;;26.80;55.20;;;;;;5999901;24;20386;-85
2022/08/28 02:16:48;;;;;;;5.80;5.30;;;26.80;55.20;;;;;;5956941;23;20416;-83
2022/08/28 02:19:37;;;;;;;5.70;5.10;;;26.80;55.20;;;;;;6031038;23;20507;-83
2022/08/28 02:22:19;;;;;;;5.13;4.60;;;26.80;55.20;;;;;;6054511;23;20447;-83
2022/08/28 02:24:56;;;;;;;5.03;4.60;;;26.80;55.20;;;;;;6056083;23;20491;-83
2022/08/28 02:27:28;;;;;;;5.33;4.83;;;26.80;55.20;;;;;;6114880;23;20372;-82
2022/08/28 02:30:04;;;;;;;5.70;5.20;;;26.80;55.10;;;;;;6118338;23;20420;-83
2022/08/28 02:32:39;;;;;;;5.63;4.57;;;26.80;55.10;;;;;;6118209;23;20381;-85
2022/08/28 02:35:13;;;;;;;5.67;5.17;;;26.80;55.10;;;;;;6117871;23;20385;-85
2022/08/28 02:37:50;;;;;;;4.87;4.47;;;26.80;55.10;;;;;;6117985;23;20424;-85
2022/08/28 02:40:28;;;;;;;6.47;5.20;;;26.80;55.00;;;;;;6143005;23;20361;-85
2022/08/28 02:43:20;;;;;;;4.67;4.23;;;26.80;55.00;;;;;;6117487;23;20383;-85
2022/08/28 02:46:17;;;;;;;5.70;5.20;;;26.80;55.10;;;;;;6174472;23;20456;-85
2022/08/28 02:48:55;;;;;;;5.50;5.00;;;26.80;55.10;;;;;;6146247;23;20407;-84
2022/08/28 02:51:34;;;;;;;5.73;4.90;;;26.80;55.10;;;;;;6174052;23;20368;-85
2022/08/28 02:54:07;;;;;;;5.13;4.50;;;26.80;55.10;;;;;;6172924;23;20391;-85
2022/08/28 02:56:40;;;;;;;5.37;4.87;;;26.80;55.00;;;;;;6148036;23;20665;-85
2022/08/28 02:59:21;;;;;;;4.60;4.20;;;26.80;55.00;;;;;;6148061;23;20423;-85
2022/08/28 03:01:52;;;;;;;5.83;5.07;;;26.80;55.00;;;;;;6147056;23;20411;-85
2022/08/28 03:04:34;;;;;;;5.13;4.73;;;26.80;55.00;;;;;;6147811;23;20451;-85
2022/08/28 03:07:08;;;;;;;5.03;4.63;;;26.80;55.00;;;;;;6130645;23;20400;-85
2022/08/28 03:09:50;;;;;;;;;;;;;;;;;;;;;
2022/08/28 03:12:26;;;;;;;5.20;4.70;;;26.70;55.00;;;;;;6173511;23;20364;-85
2022/08/28 03:15:29;;;;;;;6.70;4.90;;;26.70;55.00;;;;;;6144578;23;20384;-85
2022/08/28 03:18:04;;;;;;;5.20;4.57;;;26.70;55.00;;;;;;6147389;23;20423;-85
2022/08/28 03:20:38;;;;;;;6.60;5.67;;;26.70;55.00;;;;;;6122993;23;20474;-85
2022/08/28 03:23:26;;;;;;;5.40;4.90;;;26.70;55.00;;;;;;6123647;23;20790;-85
2022/08/28 03:25:59;;;;;;;6.40;5.60;;;26.70;55.00;;;;;;6147742;23;20451;-85
2022/08/28 03:28:41;;;;;;;5.20;4.80;;;26.70;55.00;;;;;;6147296;23;20395;-85
2022/08/28 03:31:42;;;;;;;4.70;3.87;;;26.70;55.10;;;;;;6148636;23;20407;-85
2022/08/28 03:34:20;;;;;;;8.43;5.23;;;26.60;55.00;;;;;;6142812;23;20493;-85
2022/08/28 03:36:52;;;;;;;6.20;5.27;;;26.60;55.10;;;;;;6146761;23;20396;-85
2022/08/28 03:39:25;;;;;;;5.20;4.70;;;26.60;55.00;;;;;;6122312;23;20451;-84
2022/08/28 03:42:06;;;;;;;6.40;5.73;;;26.60;55.00;;;;;;6148202;23;20379;-85
2022/08/28 03:44:53;;;;;;;6.70;5.03;;;26.60;55.10;;;;;;6172808;23;20387;-85
2022/08/28 03:47:27;;;;;;;6.10;5.50;;;26.60;55.00;;;;;;6147553;23;20760;-84
2022/08/28 03:50:01;;;;;;;7.17;6.47;;;26.60;55.00;;;;;;6146056;23;20447;-85
2022/08/28 03:52:46;;;;;;;5.73;5.13;;;26.60;55.10;;;;;;6147406;23;20375;-85
2022/08/28 03:55:19;;;;;;;6.70;6.10;;;26.60;55.10;;;;;;6149404;23;20368;-85
2022/08/28 03:57:56;;;;;;;5.87;5.37;;;26.50;55.10;;;;;;6174240;23;20411;-85
2022/08/28 04:00:41;;;;;;;6.27;5.50;;;26.50;55.10;;;;;;6175043;23;20367;-85
2022/08/28 04:03:16;;;;;;;6.00;5.40;;;26.50;55.10;;;;;;6149489;23;20380;-85
2022/08/28 04:05:48;;;;;;;6.03;5.17;;;26.50;55.10;;;;;;6148415;23;20380;-85
2022/08/28 04:08:29;;;;;;;5.07;4.57;;;26.50;55.10;;;;;;6174070;23;20412;-85
2022/08/28 04:11:02;;;;;;;5.90;5.40;;;26.50;55.10;;;;;;6147996;23;20380;-85
2022/08/28 04:13:36;;;;;;;6.23;5.17;;;26.50;55.10;;;;;;6149134;23;20463;-84
2022/08/28 04:16:27;;;;;;;;;;;;;;;;;;;;;
2022/08/28 04:19:10;;;;;;;5.63;5.00;;;26.50;55.10;;;;;;6151903;23;20442;-85
2022/08/28 04:21:43;;;;;;;5.80;5.30;;;26.50;55.10;;;;;;6146841;23;20376;-84
2022/08/28 04:24:16;;;;;;;5.83;5.30;;;26.50;55.10;;;;;;6173212;23;20363;-84
2022/08/28 04:26:58;;;;;;;5.90;5.23;;;26.50;55.10;;;;;;6146806;23;20419;-84
2022/08/28 04:29:30;;;;;;;5.53;5.03;;;26.50;55.10;;;;;;6178234;23;20384;-86
2022/08/28 04:32:19;;;;;;;6.37;5.77;;;26.50;55.10;;;;;;6156992;23;20365;-86
2022/08/28 04:34:56;;;;;;;6.50;5.43;;;26.50;55.10;;;;;;6155521;23;20364;-86
2022/08/28 04:37:32;;;;;;;6.50;4.67;;;26.50;55.10;;;;;;6129007;23;20384;-87
2022/08/28 04:40:00;;;;;;;6.43;5.37;;;26.50;55.10;;;;;;6153392;23;20674;-87
2022/08/28 04:45:32;;;;;;;5.70;5.13;;;26.50;55.10;;;;;;6178739;23;20352;-87
2022/08/28 04:48:05;;;;;;;6.23;5.50;;;26.40;55.00;;;;;;6153137;23;20376;-86
2022/08/28 04:50:49;;;;;;;5.60;5.03;;;26.40;55.00;;;;;;6150174;23;20380;-85
2022/08/28 04:56:50;;;;;;;5.60;5.10;;;26.40;55.00;;;;;;6177762;23;20794;-86
2022/08/28 04:59:40;;;;;;;5.60;5.10;;;26.40;55.00;;;;;;6176363;23;20424;-86
2022/08/28 05:02:49;;;;;;;5.63;5.13;;;26.40;55.10;;;;;;6178259;23;20376;-86
2022/08/28 05:05:25;;;;;;;5.47;5.07;;;26.40;55.10;;;;;;6176080;23;20372;-86
2022/08/28 05:08:41;;;;;;;5.47;4.93;;;26.40;55.10;;;;;;6177228;23;20376;-86
2022/08/28 05:11:24;;;;;;;4.97;4.53;;;26.40;55.10;;;;;;6151847;23;20388;-86
2022/08/28 05:14:10;;;;;;;5.53;5.03;;;26.40;55.10;;;;;;6177874;23;20439;-86
2022/08/28 05:20:17;;;;;;;5.50;4.60;;;26.40;55.10;;;;;;6177496;23;20367;-86
2022/08/28 05:23:09;;;;;;;5.80;5.00;;;26.40;55.10;;;;;;6149677;23;20387;-86
2022/08/28 05:26:02;;;;;;;4.90;4.47;;;26.40;55.10;;;;;;6145519;23;20385;-86
2022/08/28 05:28:41;;;;;;;4.57;4.17;;;26.40;55.10;;;;;;6173773;23;20373;-85
2022/08/28 05:31:29;;;;;;;5.43;4.93;;;26.40;55.10;;;;;;6150574;23;20369;-87
2022/08/28 05:33:59;;;;;;;5.30;4.90;;;26.40;55.10;;;;;;6149268;23;20718;-86
2022/08/28 05:36:33;;;;;;;6.03;5.27;;;26.40;55.10;;;;;;6150257;23;20373;-85
2022/08/28 05:39:18;;;;;;;5.20;4.70;;;26.40;55.10;;;;;;6175023;23;20430;-86
2022/08/28 05:42:05;;;;;;;5.47;4.83;;;26.40;55.10;;;;;;6151296;23;20380;-87
2022/08/28 05:51:44;;;;;;;5.43;4.93;;;26.30;55.00;;;;;;6177922;23;20448;-86
2022/08/28 05:54:15;;;;;;;6.80;5.00;;;26.30;55.10;;;;;;6152765;23;20459;-86
2022/08/28 05:56:57;;;;;;;6.73;5.27;;;26.30;55.20;;;;;;6174558;23;20383;-86
2022/08/28 05:59:33;;;;;;;4.80;4.50;;;26.30;55.10;;;;;;6151947;23;20735;-87
2022/08/28 06:02:10;;;;;;;5.13;4.63;;;26.30;55.10;;;;;;6152036;23;20408;-86
2022/08/28 06:05:11;;;;;;;5.90;4.70;;;26.30;55.10;;;;;;6177719;23;20368;-86
2022/08/28 06:07:52;;;;;;;4.40;4.00;;;26.30;55.10;;;;;;6062873;23;20398;-86
2022/08/28 06:10:32;;;;;;;4.80;4.40;;;26.30;55.10;;;;;;6041662;23;20441;-86
2022/08/28 06:13:11;;;;;;;5.30;4.80;;;26.30;55.10;;;;;;6087978;23;20430;-85
2022/08/28 06:16:07;;;;;;;5.93;4.97;;;26.30;55.00;;;;;;6063706;23;20379;-86
2022/08/28 06:18:50;;;;;;;;;;;;;;;;;;;;;
2022/08/28 06:21:45;;;;;;;5.07;4.53;;;26.30;55.50;;;;;;6066605;23;20378;-85
2022/08/28 06:27:47;;;;;;;5.07;4.67;;;26.30;55.00;;;;;;6087999;23;20427;-86
2022/08/28 06:30:22;;;;;;;4.67;4.27;;;26.30;55.00;;;;;;6061221;23;20397;-87
2022/08/28 06:36:12;;;;;;;5.53;5.00;;;26.30;55.00;;;;;;6058761;23;20419;-86
2022/08/28 06:41:30;;;;;;;4.37;3.97;;;26.30;55.10;;;;;;6059534;23;20382;-86
2022/08/28 06:54:11;;;;;;;4.10;3.70;;;26.30;55.10;;;;;;6057698;23;20372;-86
2022/08/28 06:56:46;;;;;;;4.13;3.73;;;26.30;55.10;;;;;;6037811;23;20387;-86
2022/08/28 06:59:32;;;;;;;4.87;4.40;;;26.30;55.10;;;;;;6058649;23;20427;-86
2022/08/28 07:02:13;;;;;;;5.47;5.00;;;26.30;55.10;;;;;;6059413;23;20380;-86
2022/08/28 07:05:24;;;;;;;4.70;4.30;;;26.30;55.00;;;;;;6001144;24;20381;-86
2022/08/28 07:08:05;;;;;;;5.23;4.20;;;26.30;55.00;;;;;;5977119;24;20408;-86
2022/08/28 07:10:55;;;;;;;4.87;3.70;;;26.30;55.00;;;;;;6003030;23;20385;-86
2022/08/28 07:13:32;;;;;;;5.30;4.43;;;26.30;54.90;;;;;;5979476;24;20400;-86
2022/08/28 07:16:30;;;;;;;4.33;3.67;;;26.40;55.00;;;;;;5999494;24;20429;-85
2022/08/28 07:19:18;;;;;;;4.43;4.10;;;26.40;55.00;;;;;;5965630;24;20438;-85
2022/08/28 07:21:58;;;;;;;4.57;4.00;;;26.40;55.00;;;;;;5943734;24;20414;-85
2022/08/28 07:25:07;;;;;;;4.60;4.30;;;26.40;55.00;;;;;;5928733;24;20388;-85
2022/08/28 07:27:49;;;;;;;;;;;;;;;;;;;;;
2022/08/28 07:34:15;;;;;;;;;;;;;;;;;;;;;
2022/08/28 07:37:02;;;;;;;;;;;;;;;;;;;;;
2022/08/28 07:39:35;;;;;;;4.83;3.77;;;26.40;54.90;;;;;;5945798;24;20447;-85
2022/08/28 07:52:16;;;;;;;4.63;4.20;;;26.40;54.90;;;;;;5917613;24;20814;-85
2022/08/28 07:54:59;;;;;;;5.80;3.80;;;26.40;54.90;;;;;;5907591;24;20669;-85
2022/08/28 07:57:53;;;;;;;4.40;4.10;;;26.40;54.90;;;;;;5944411;24;20378;-85
2022/08/28 08:00:42;;;;;;;3.73;3.43;;;26.40;54.80;;;;;;5922445;24;20380;-84
2022/08/28 08:03:15;;;;;;;3.90;3.60;;;26.40;54.80;;;;;;5983320;23;20382;-85
2022/08/28 08:05:54;;;;;;;4.23;3.73;;;26.40;54.80;;;;;;6061736;23;20387;-84
2022/08/28 08:09:11;;;;;;;7.77;4.10;;;26.40;54.80;;;;;;6060797;23;20469;-83
2022/08/28 08:11:42;;;;;;;4.40;3.73;;;26.40;54.80;;;;;;6061432;23;20627;-84
2022/08/28 08:14:18;;;;;;;3.73;3.43;;;26.40;54.80;;;;;;6084443;23;20386;-83
2022/08/28 08:17:38;;;;;;;4.27;3.87;;;26.40;54.80;;;;;;6084382;23;20466;-84
2022/08/28 08:20:20;;;;;;;5.30;4.63;;;26.40;54.70;;;;;;6117213;23;20393;-84
2022/08/28 08:22:53;;;;;;;7.57;5.10;;;26.40;55.30;;;;;;6116335;23;20381;-84
2022/08/28 08:25:52;;;;;;;4.47;3.50;;;26.40;54.80;;;;;;6143688;23;20404;-84
2022/08/28 08:28:44;;;;;;;4.10;3.27;;;26.40;54.70;;;;;;6144031;23;20365;-84
2022/08/28 08:31:19;;;;;;;4.10;3.47;;;26.40;54.70;;;;;;6116061;23;20380;-84
2022/08/28 08:33:56;;;;;;;3.30;3.00;;;26.50;54.70;;;;;;6119390;23;20369;-85
2022/08/28 08:43:34;;;;;;;4.33;3.50;;;26.50;54.70;;;;;;6143659;23;20428;-84
2022/08/28 08:46:10;;;;;;;3.93;3.17;;;26.40;54.70;;;;;;6117902;23;20373;-84
2022/08/28 08:55:37;;;;;;;3.63;3.33;;;26.50;54.60;;;;;;6086037;23;20458;-83
2022/08/28 08:58:18;;;;;;;4.50;3.83;;;26.50;54.50;;;;;;5877802;24;20483;-84
2022/08/28 09:01:22;;;;;;;3.90;3.17;;;26.40;54.40;;;;;;5916561;24;20410;-84
2022/08/28 09:07:21;;;;;;;3.50;3.13;;;26.50;54.40;;;;;;5907836;24;20387;-87
2022/08/28 09:10:02;;;;;;;3.80;3.27;;;26.50;54.40;;;;;;5918916;24;20379;-87
2022/08/28 09:12:51;;;;;;;3.17;2.80;;;26.50;54.30;;;;;;5925926;24;20410;-86
2022/08/28 09:15:33;;;;;;;5.00;3.27;;;26.50;54.40;;;;;;5894277;24;20441;-82
2022/08/28 09:18:25;;;;;;;5.07;3.07;;;26.50;54.20;;;;;;5916426;24;20465;-83
2022/08/28 09:21:00;;;;;;;3.20;2.90;;;26.50;54.20;;;;;;5916670;24;20879;-83
2022/08/28 09:23:32;;;;;;;4.93;3.77;;;26.50;54.20;;;;;;5916703;24;20483;-84
2022/08/28 09:26:10;;;;;;;3.97;3.20;;;26.50;54.20;;;;;;5916382;24;20924;-84
2022/08/28 09:28:49;;;;;;;3.97;3.50;;;26.50;54.10;;;;;;5914734;24;20421;-83
2022/08/28 09:31:42;;;;;;;3.47;3.17;;;26.50;54.10;;;;;;5916959;24;20388;-82
2022/08/28 09:34:31;;;;;;;7.33;3.70;;;26.50;54.10;;;;;;5978750;23;20766;-84
2022/08/28 09:37:02;;;;;;;5.67;3.40;;;26.50;54.10;;;;;;6061186;23;20406;-85
2022/08/28 09:39:36;;;;;;;6.00;3.37;;;26.50;54.10;;;;;;6060580;23;20451;-83
2022/08/28 09:45:33;;;;;;;5.00;3.67;;;26.50;54.00;;;;;;6145285;23;20661;-85
2022/08/28 09:48:54;;;;;;;3.30;3.00;;;26.50;54.10;;;;;;6143256;23;20389;-84
2022/08/28 09:51:41;;;;;;;6.50;4.33;;;26.50;54.10;;;;;;6144149;23;20392;-84
2022/08/28 09:54:43;;;;;;;4.70;3.40;;;26.50;54.10;;;;;;6144016;23;20381;-84
2022/08/28 09:57:25;;;;;;;5.97;3.33;;;26.50;54.10;;;;;;6144225;23;20387;-84
2022/08/28 10:00:03;;;;;;;3.73;3.43;;;26.50;54.10;;;;;;6143665;23;20388;-84
2022/08/28 10:03:08;;;;;;;3.53;3.20;;;26.50;54.10;;;;;;6143511;23;20384;-84
2022/08/28 10:09:25;;;;;;;4.00;3.60;;;26.50;54.00;;;;;;6145606;23;20353;-83
2022/08/28 10:12:39;;;;;;;4.37;3.60;;;26.50;54.00;;;;;;6145136;23;20368;-84
2022/08/28 10:15:45;;;;;;;4.70;3.43;;;26.50;54.00;;;;;;6112565;23;20381;-84
2022/08/28 10:22:29;;;;;;;4.77;4.23;;;26.50;54.00;;;;;;6026312;23;20404;-84
2022/08/28 10:25:25;;;;;;;4.20;3.50;;;26.50;54.00;;;;;;6003476;23;20372;-84
2022/08/28 10:28:08;;;;;;;3.63;2.97;;;26.50;54.00;;;;;;5999342;23;20385;-84
2022/08/28 10:31:09;;;;;;;3.40;3.10;;;26.50;54.00;;;;;;6025003;23;20380;-84
2022/08/28 10:33:54;;;;;;;3.73;3.33;;;26.50;54.00;;;;;;6025868;23;20387;-84
2022/08/28 10:36:39;;;;;;;4.57;3.60;;;26.50;54.00;;;;;;6003158;23;20471;-84
2022/08/28 10:39:34;;;;;;;3.60;3.27;;;26.50;54.00;;;;;;6008326;23;20447;-84
2022/08/28 10:48:54;;;;;;;3.50;3.00;;;26.50;53.90;;;;;;6056031;23;20358;-84
2022/08/28 10:51:56;;;;;;;3.53;3.20;;;26.60;54.00;;;;;;6031559;23;20412;-84
2022/08/28 10:54:46;;;;;;;4.30;3.40;;;26.60;54.00;;;;;;6009366;23;20390;-84
2022/08/28 11:04:09;;;;;;;3.90;3.50;;;26.60;53.90;;;;;;6026741;23;20401;-84
2022/08/28 11:06:57;;;;;;;3.87;3.50;;;26.60;53.90;;;;;;6025140;23;20379;-83
2022/08/28 11:09:51;;;;;;;4.77;3.37;;;26.60;53.90;;;;;;6027720;23;20381;-84
2022/08/28 11:12:52;;;;;;;4.83;3.70;;;26.60;53.90;;;;;;6026585;23;20385;-83
2022/08/28 11:15:43;;;;;;;4.17;3.20;;;26.60;53.80;;;;;;6026359;23;20467;-83
2022/08/28 11:19:00;;;;;;;4.23;3.90;;;26.60;53.70;;;;;;6020064;23;20435;-84
2022/08/28 11:22:01;;;;;;;5.47;4.00;;;26.60;53.70;;;;;;5888688;24;20453;-83
2022/08/28 11:28:46;;;;;;;5.03;4.37;;;26.60;53.70;;;;;;5888897;24;20357;-84
2022/08/28 11:31:21;;;;;;;5.20;4.27;;;26.60;53.70;;;;;;5888290;24;20804;-84
2022/08/28 11:33:58;;;;;;;3.47;3.17;;;26.60;53.70;;;;;;5865882;24;20456;-84
2022/08/28 11:36:40;;;;;;;4.03;3.33;;;26.60;53.70;;;;;;5867204;24;20382;-84
2022/08/28 11:39:27;;;;;;;3.40;3.10;;;26.60;53.60;;;;;;5913984;24;20443;-84
2022/08/28 11:42:12;;;;;;;5.43;3.40;;;26.60;53.60;;;;;;5892507;24;20565;-83
2022/08/28 11:45:09;;;;;;;3.50;3.20;;;26.60;53.50;;;;;;5914841;24;20392;-83
2022/08/28 11:47:58;;;;;;;;;;;;;;;;;;;;;
2022/08/28 11:50:28;;;;;;;5.83;3.90;;;26.60;53.50;;;;;;5987658;23;20393;-83
2022/08/28 11:53:32;;;;;;;3.70;3.23;;;26.60;53.50;;;;;;6001147;23;20679;-83
2022/08/28 11:56:20;;;;;;;4.63;3.80;;;26.60;53.40;;;;;;6018314;23;20379;-85
2022/08/28 11:59:21;;;;;;;3.87;3.57;;;26.60;53.50;;;;;;6142673;23;20447;-84
2022/08/28 12:02:34;;;;;;;7.00;3.70;;;26.70;53.50;;;;;;6086370;23;20408;-85
2022/08/28 12:12:33;;;;;;;3.67;3.37;;;26.60;53.40;;;;;;6141862;23;20379;-84
2022/08/28 12:18:41;;;;;;;3.47;3.17;;;26.60;53.30;;;;;;6144888;23;20468;-83
2022/08/28 12:25:24;;;;;;;4.00;3.40;;;26.60;53.30;;;;;;6144937;23;20345;-85
2022/08/28 12:27:53;;;;;;;3.27;2.97;;;26.60;53.30;;;;;;6059176;23;20394;-85
2022/08/28 12:30:41;;;;;;;3.77;3.47;;;26.60;53.30;;;;;;6060221;23;20395;-84
2022/08/28 12:33:53;;;;;;;3.80;3.50;;;26.60;53.30;;;;;;6060644;23;20382;-85
2022/08/28 12:36:54;;;;;;;3.93;3.53;;;26.60;53.30;;;;;;6055000;23;20437;-84
2022/08/28 12:40:01;;;;;;;4.70;3.40;;;26.60;53.20;;;;;;6031194;23;20870;-83
2022/08/28 12:46:33;;;;;;;4.03;3.63;;;26.60;53.00;;;;;;6056103;23;20363;-84
2022/08/28 12:56:40;;;;;;;5.73;3.70;;;26.60;53.10;;;;;;6027324;23;20428;-84
2022/08/28 13:00:16;;;;;;;3.40;3.10;;;26.60;53.20;;;;;;6046395;23;20418;-84
2022/08/28 13:03:08;;;;;;;5.37;3.43;;;26.60;53.10;;;;;;6084915;23;20467;-85
2022/08/28 13:06:05;;;;;;;3.47;3.17;;;26.60;53.10;;;;;;6085082;23;20415;-83
2022/08/28 13:08:36;;;;;;;3.80;3.50;;;26.60;53.10;;;;;;6060718;23;20454;-83
2022/08/28 13:11:13;;;;;;;5.60;3.30;;;26.60;53.10;;;;;;6059480;23;20403;-83
2022/08/28 13:13:51;;;;;;;4.40;3.77;;;26.60;53.10;;;;;;6084812;23;20378;-85
2022/08/28 13:20:37;;;;;;;3.50;3.20;;;26.60;53.00;;;;;;6084423;23;20421;-85
2022/08/28 13:23:49;;;;;;;3.57;3.27;;;26.60;53.10;;;;;;6060547;23;20857;-86
2022/08/28 13:26:43;;;;;;;3.53;3.23;;;26.60;53.10;;;;;;6055235;23;20483;-85
2022/08/28 13:29:23;;;;;;;4.23;3.60;;;26.60;53.20;;;;;;6097311;23;20385;-85
2022/08/28 13:35:40;;;;;;;4.27;3.53;;;26.60;53.10;;;;;;6144221;23;20363;-85
2022/08/28 13:45:04;;;;;;;4.90;3.90;;;26.60;53.00;;;;;;6173818;23;20363;-84
2022/08/28 13:47:44;;;;;;;4.57;3.50;;;26.60;53.00;;;;;;6148116;23;20368;-85
2022/08/28 13:50:17;;;;;;;4.50;4.10;;;26.60;52.90;;;;;;6147610;23;20624;-85
2022/08/28 13:52:44;;;;;;;5.23;3.63;;;26.60;53.00;;;;;;6147714;23;20372;-85
2022/08/28 13:55:22;;;;;;;4.13;3.73;;;26.70;52.90;;;;;;6149080;23;20463;-84
2022/08/28 13:58:11;;;;;;;;;;;;;;;;;;;;;
2022/08/28 14:04:11;;;;;;;3.17;2.87;;;26.70;52.90;;;;;;6174831;23;20352;-84
2022/08/28 14:06:47;;;;;;;3.80;3.30;;;26.60;52.90;;;;;;6149190;23;20380;-83
2022/08/28 14:09:19;;;;;;;3.70;3.10;;;26.70;53.10;;;;;;6172947;23;20642;-83
2022/08/28 14:12:25;;;;;;;3.30;3.00;;;26.60;53.50;;;;;;6148329;23;20416;-83
2022/08/28 14:21:52;;;;;;;;;;;;;;;;;;;;;
2022/08/28 14:31:13;;;;;;;4.97;3.60;;;26.70;52.90;;;;;;5999305;24;20352;-84
2022/08/28 14:33:46;;;;;;;5.03;3.80;;;26.60;52.90;;;;;;5999639;24;20381;-84
2022/08/28 14:36:31;;;;;;;4.23;3.83;;;26.70;52.90;;;;;;5999434;24;20380;-84
2022/08/28 14:39:05;;;;;;;4.00;3.70;;;26.70;53.00;;;;;;5998080;23;20499;-83
2022/08/28 14:41:50;;;;;;;3.77;3.47;;;26.70;52.90;;;;;;5974599;24;20386;-84
2022/08/28 14:44:24;;;;;;;3.77;3.47;;;26.70;53.10;;;;;;5999859;24;20382;-83
2022/08/28 14:46:55;;;;;;;4.20;3.77;;;26.70;53.00;;;;;;5999779;24;20385;-84
2022/08/28 14:49:35;;;;;;;3.97;3.53;;;26.70;52.90;;;;;;5998672;24;20448;-85
2022/08/28 14:52:24;;;;;;;3.47;3.17;;;26.70;53.00;;;;;;6020383;23;20387;-85
2022/08/28 14:58:22;;;;;;;3.63;3.20;;;26.70;52.80;;;;;;6173764;23;20419;-85
2022/08/28 15:01:05;;;;;;;4.73;3.73;;;26.70;52.90;;;;;;6147713;23;20444;-85
2022/08/28 15:10:04;;;;;;;3.53;3.23;;;26.70;52.70;;;;;;6173333;23;20347;-83
2022/08/28 15:12:37;;;;;;;3.50;3.20;;;26.70;52.80;;;;;;6145829;23;20391;-84
2022/08/28 15:15:16;;;;;;;4.40;2.97;;;26.70;52.80;;;;;;6139875;23;20380;-84
2022/08/28 15:18:00;;;;;;;3.50;3.20;;;26.70;52.80;;;;;;6148613;23;20376;-83
2022/08/28 15:20:39;;;;;;;3.67;3.37;;;26.70;52.80;;;;;;6147530;23;20381;-84
2022/08/28 15:23:20;;;;;;;5.40;4.40;;;26.70;52.70;;;;;;6148168;23;20435;-84
2022/08/28 15:25:58;;;;;;;4.20;3.50;;;26.70;52.60;;;;;;6148098;23;20384;-84
2022/08/28 15:28:45;;;;;;;3.60;3.30;;;26.70;52.40;;;;;;6147268;23;20407;-84
2022/08/28 15:31:25;;;;;;;3.93;3.53;;;26.70;52.50;;;;;;6147501;23;20383;-83
2022/08/28 15:47:34;;;;;;;2.80;2.53;;;26.70;52.40;;;;;;6026175;23;20391;-85
2022/08/28 15:54:05;;;;;;;3.07;2.83;;;26.70;52.50;;;;;;6005431;24;20454;-85
2022/08/28 16:07:08;;;;;;;4.07;3.27;;;26.70;52.50;;;;;;5949444;24;20434;-86
2022/08/28 16:09:41;;;;;;;4.53;3.60;;;26.70;52.60;;;;;;5920372;24;20459;-87
2022/08/28 16:15:38;;;;;;;5.23;3.07;;;26.70;52.60;;;;;;5914642;24;20364;-87
2022/08/28 16:18:08;;;;;;;3.57;3.00;;;26.70;52.60;;;;;;5914833;24;20431;-86
2022/08/28 16:21:02;;;;;;;3.73;3.43;;;26.70;52.60;;;;;;5967657;23;20449;-86
2022/08/28 16:26:27;;;;;;;4.43;3.30;;;26.70;52.60;;;;;;5942568;24;20391;-85
2022/08/28 16:29:07;;;;;;;3.83;3.43;;;26.70;52.60;;;;;;5943411;24;20391;-82
2022/08/28 16:34:53;;;;;;;5.70;4.27;;;26.70;52.60;;;;;;5951834;24;20503;-83
2022/08/28 16:37:46;;;;;;;3.77;3.47;;;26.70;52.60;;;;;;5950736;24;20390;-82
2022/08/28 16:44:04;;;;;;;3.93;3.63;;;26.70;52.70;;;;;;5953163;23;20431;-83
2022/08/28 16:50:14;;;;;;;3.67;3.37;;;26.70;52.70;;;;;;5967881;24;20382;-81
2022/08/28 16:52:46;;;;;;;4.17;3.67;;;26.70;52.80;;;;;;5949811;24;20406;-81
2022/08/28 16:55:15;;;;;;;4.27;3.63;;;26.70;52.80;;;;;;5978886;24;20387;-83
2022/08/28 16:57:49;;;;;;;3.73;3.10;;;26.70;52.80;;;;;;5977657;24;20457;-82
2022/08/28 17:04:11;;;;;;;4.00;3.70;;;26.70;52.80;;;;;;6031417;23;20445;-82
2022/08/28 17:06:58;;;;;;;6.67;3.77;;;26.70;52.80;;;;;;6083843;23;20376;-82
2022/08/28 17:13:17;;;;;;;4.20;3.80;;;26.70;52.90;;;;;;6182541;23;20340;-81
2022/08/28 17:16:03;;;;;;;4.67;3.50;;;26.70;52.90;;;;;;6171643;23;20399;-81
2022/08/28 17:18:35;;;;;;;4.00;3.30;;;26.70;52.90;;;;;;6151607;23;20419;-81
2022/08/28 17:27:31;;;;;;;5.60;3.50;;;26.70;52.90;;;;;;6064545;23;20390;-81
2022/08/28 17:30:27;;;;;;;3.70;3.03;;;26.70;52.90;;;;;;6009373;23;20368;-81
2022/08/28 17:36:39;;;;;;;3.97;3.57;;;26.70;52.90;;;;;;6035898;23;20352;-82
2022/08/28 17:39:34;;;;;;;4.30;3.90;;;26.70;53.00;;;;;;6021065;23;20428;-82
2022/08/28 17:52:34;;;;;;;4.97;3.60;;;26.70;53.00;;;;;;6007399;23;20360;-82
2022/08/28 17:55:13;;;;;;;5.17;4.60;;;26.70;53.10;;;;;;6007417;24;20443;-81
2022/08/28 17:57:49;;;;;;;5.10;4.07;;;26.70;53.10;;;;;;6004877;23;20374;-80
2022/08/28 18:00:18;;;;;;;5.20;3.87;;;26.70;53.10;;;;;;6006748;23;20404;-81
2022/08/28 18:03:20;;;;;;;4.63;4.10;;;26.70;53.10;;;;;;6007743;24;20384;-81
2022/08/28 18:05:54;;;;;;;4.90;3.60;;;26.70;53.10;;;;;;6010650;23;20389;-82
2022/08/28 18:08:31;;;;;;;4.90;4.03;;;26.70;53.10;;;;;;5988174;23;20395;-82
2022/08/28 18:27:30;;;;;;;4.20;3.90;;;26.70;53.10;;;;;;6075346;23;20382;-81
2022/08/28 18:37:16;;;;;;;;;;;;;;;;;;;;;
2022/08/28 18:40:04;;;;;;;3.97;3.57;;;26.70;53.20;;;;;;5949302;24;20430;-80
2022/08/28 18:42:37;;;;;;;4.40;4.00;;;26.70;53.20;;;;;;5924049;24;20375;-81
2022/08/28 18:45:14;;;;;;;4.40;3.50;;;26.70;53.30;;;;;;5923456;24;20463;-81
2022/08/28 18:47:55;;;;;;;5.50;3.73;;;26.70;53.20;;;;;;5946052;24;20387;-81
2022/08/28 18:50:27;;;;;;;4.53;4.13;;;26.70;53.30;;;;;;5922823;24;20411;-81
2022/08/28 18:53:05;;;;;;;4.20;3.80;;;26.70;53.30;;;;;;5920651;24;20402;-81
2022/08/28 18:55:56;;;;;;;4.30;3.90;;;26.70;53.30;;;;;;5923482;24;20391;-80
2022/08/28 18:58:28;;;;;;;4.50;4.10;;;26.70;53.30;;;;;;5922256;24;20430;-79
2022/08/28 19:01:23;;;;;;;5.80;5.00;;;26.70;53.20;;;;;;5946355;24;20395;-80
2022/08/28 19:04:13;;;;;;;4.40;4.00;;;26.70;53.30;;;;;;5978765;24;20365;-82
2022/08/28 19:07:12;;;;;;;4.20;3.60;;;26.70;53.30;;;;;;5864484;24;20387;-82
2022/08/28 19:23:29;;;;;;;3.83;3.50;;;26.70;53.40;;;;;;5994081;23;20392;-83
2022/08/28 19:26:12;;;;;;;4.53;4.13;;;26.70;53.40;;;;;;6040632;23;20383;-84